sensor_id;sensor_type;location;lat;lon;timestamp;P1;durP1;ratioP1;P2;durP2;ratioP2
81124;SDS011;70613;52.114;5.424;2023-06-10T00:00:51;5.20;;;3.58;;
81124;SDS011;70613;52.114;5.424;2023-06-10T00:03:24;7.35;;;3.40;;
81124;SDS011;70613;52.114;5.424;2023-06-10T00:05:54;5.65;;;3.30;;
81124;SDS011;70613;52.114;5.424;2023-06-10T00:08:24;5.72;;;3.45;;
81124;SDS011;70613;52.114;5.424;2023-06-10T00:10:56;4.88;;;3.30;;
81124;SDS011;70613;52.114;5.424;2023-06-10T00:13:32;4.97;;;3.30;;
81124;SDS011;70613;52.114;5.424;2023-06-10T00:16:02;6.28;;;3.22;;
81124;SDS011;70613;52.114;5.424;2023-06-10T00:18:35;5.72;;;3.42;;
81124;SDS011;70613;52.114;5.424;2023-06-10T00:21:05;5.82;;;3.58;;
81124;SDS011;70613;52.114;5.424;2023-06-10T00:23:35;5.45;;;3.50;;
81124;SDS011;70613;52.114;5.424;2023-06-10T00:26:06;5.38;;;3.50;;
81124;SDS011;70613;52.114;5.424;2023-06-10T00:28:36;4.88;;;3.20;;
81124;SDS011;70613;52.114;5.424;2023-06-10T00:31:06;6.10;;;3.30;;
81124;SDS011;70613;52.114;5.424;2023-06-10T00:33:39;5.40;;;3.22;;
81124;SDS011;70613;52.114;5.424;2023-06-10T00:36:09;5.57;;;3.17;;
81124;SDS011;70613;52.114;5.424;2023-06-10T00:38:39;6.70;;;3.70;;
81124;SDS011;70613;52.114;5.424;2023-06-10T01:43:27;6.88;;;3.45;;
81124;SDS011;70613;52.114;5.424;2023-06-10T01:46:14;6.18;;;3.20;;
81124;SDS011;70613;52.114;5.424;2023-06-10T02:20:47;6.22;;;3.10;;
81124;SDS011;70613;52.114;5.424;2023-06-10T02:23:19;6.10;;;3.05;;
81124;SDS011;70613;52.114;5.424;2023-06-10T02:29:31;5.13;;;2.50;;
81124;SDS011;70613;52.114;5.424;2023-06-10T02:57:49;6.05;;;3.28;;
81124;SDS011;70613;52.114;5.424;2023-06-10T03:01:26;5.40;;;2.85;;
81124;SDS011;70613;52.114;5.424;2023-06-10T03:04:37;7.50;;;3.33;;
81124;SDS011;70613;52.114;5.424;2023-06-10T03:30:51;6.25;;;2.95;;
81124;SDS011;70613;52.114;5.424;2023-06-10T03:33:28;5.60;;;2.75;;
81124;SDS011;70613;52.114;5.424;2023-06-10T03:36:12;5.57;;;2.97;;
81124;SDS011;70613;52.114;5.424;2023-06-10T03:38:56;5.47;;;2.97;;
81124;SDS011;70613;52.114;5.424;2023-06-10T03:42:00;5.57;;;2.70;;
81124;SDS011;70613;52.114;5.424;2023-06-10T03:44:35;5.53;;;2.67;;
81124;SDS011;70613;52.114;5.424;2023-06-10T04:04:42;6.85;;;3.33;;
81124;SDS011;70613;52.114;5.424;2023-06-10T04:54:43;6.25;;;2.80;;
81124;SDS011;70613;52.114;5.424;2023-06-10T04:57:15;6.38;;;2.67;;
81124;SDS011;70613;52.114;5.424;2023-06-10T05:11:29;6.15;;;3.00;;
81124;SDS011;70613;52.114;5.424;2023-06-10T08:31:22;6.35;;;3.20;;
81124;SDS011;70613;52.114;5.424;2023-06-10T08:33:52;7.03;;;3.35;;
81124;SDS011;70613;52.114;5.424;2023-06-10T08:36:22;6.68;;;3.20;;
81124;SDS011;70613;52.114;5.424;2023-06-10T08:38:52;7.00;;;2.70;;
81124;SDS011;70613;52.114;5.424;2023-06-10T08:41:24;5.40;;;2.95;;
81124;SDS011;70613;52.114;5.424;2023-06-10T08:44:02;7.10;;;3.08;;
81124;SDS011;70613;52.114;5.424;2023-06-10T08:46:46;7.03;;;2.95;;
81124;SDS011;70613;52.114;5.424;2023-06-10T08:49:18;6.47;;;2.72;;
81124;SDS011;70613;52.114;5.424;2023-06-10T08:54:56;7.53;;;2.80;;
81124;SDS011;70613;52.114;5.424;2023-06-10T08:57:28;5.72;;;2.72;;
81124;SDS011;70613;52.114;5.424;2023-06-10T09:02:48;6.43;;;2.70;;
81124;SDS011;70613;52.114;5.424;2023-06-10T09:05:20;5.30;;;2.65;;
81124;SDS011;70613;52.114;5.424;2023-06-10T09:07:51;5.45;;;2.75;;
81124;SDS011;70613;52.114;5.424;2023-06-10T09:10:21;5.13;;;2.63;;
81124;SDS011;70613;52.114;5.424;2023-06-10T09:12:52;5.03;;;2.45;;
81124;SDS011;70613;52.114;5.424;2023-06-10T09:15:22;4.88;;;2.47;;
81124;SDS011;70613;52.114;5.424;2023-06-10T09:17:54;5.05;;;2.80;;
81124;SDS011;70613;52.114;5.424;2023-06-10T09:20:24;7.45;;;2.65;;
81124;SDS011;70613;52.114;5.424;2023-06-10T09:22:54;5.07;;;2.70;;
81124;SDS011;70613;52.114;5.424;2023-06-10T09:25:34;5.22;;;2.63;;
81124;SDS011;70613;52.114;5.424;2023-06-10T09:28:08;5.50;;;2.65;;
81124;SDS011;70613;52.114;5.424;2023-06-10T09:30:45;6.18;;;2.88;;
81124;SDS011;70613;52.114;5.424;2023-06-10T09:33:18;5.93;;;2.67;;
81124;SDS011;70613;52.114;5.424;2023-06-10T09:35:54;4.72;;;2.50;;
81124;SDS011;70613;52.114;5.424;2023-06-10T09:38:29;5.43;;;2.75;;
81124;SDS011;70613;52.114;5.424;2023-06-10T09:41:09;5.03;;;2.40;;
81124;SDS011;70613;52.114;5.424;2023-06-10T09:43:40;6.10;;;2.85;;
81124;SDS011;70613;52.114;5.424;2023-06-10T09:46:14;6.05;;;2.60;;
81124;SDS011;70613;52.114;5.424;2023-06-10T09:48:48;4.47;;;2.40;;
81124;SDS011;70613;52.114;5.424;2023-06-10T09:51:19;4.95;;;2.53;;
81124;SDS011;70613;52.114;5.424;2023-06-10T09:53:49;5.47;;;2.58;;
81124;SDS011;70613;52.114;5.424;2023-06-10T09:56:21;4.40;;;2.50;;
81124;SDS011;70613;52.114;5.424;2023-06-10T09:59:02;5.22;;;2.55;;
81124;SDS011;70613;52.114;5.424;2023-06-10T10:01:35;5.88;;;2.72;;
81124;SDS011;70613;52.114;5.424;2023-06-10T10:04:07;7.97;;;2.97;;
81124;SDS011;70613;52.114;5.424;2023-06-10T10:06:37;5.53;;;2.90;;
81124;SDS011;70613;52.114;5.424;2023-06-10T10:09:09;6.07;;;2.53;;
81124;SDS011;70613;52.114;5.424;2023-06-10T10:11:44;4.95;;;2.22;;
81124;SDS011;70613;52.114;5.424;2023-06-10T10:14:18;5.55;;;2.58;;
81124;SDS011;70613;52.114;5.424;2023-06-10T10:16:50;5.55;;;2.83;;
81124;SDS011;70613;52.114;5.424;2023-06-10T10:19:27;5.97;;;2.60;;
81124;SDS011;70613;52.114;5.424;2023-06-10T10:22:07;7.28;;;2.60;;
81124;SDS011;70613;52.114;5.424;2023-06-10T10:24:40;5.53;;;2.50;;
81124;SDS011;70613;52.114;5.424;2023-06-10T10:27:20;4.88;;;2.58;;
81124;SDS011;70613;52.114;5.424;2023-06-10T10:29:57;5.32;;;2.45;;
81124;SDS011;70613;52.114;5.424;2023-06-10T10:32:34;5.13;;;2.55;;
81124;SDS011;70613;52.114;5.424;2023-06-10T10:35:17;4.75;;;2.40;;
81124;SDS011;70613;52.114;5.424;2023-06-10T10:37:51;5.40;;;2.38;;
81124;SDS011;70613;52.114;5.424;2023-06-10T10:40:23;5.20;;;2.70;;
81124;SDS011;70613;52.114;5.424;2023-06-10T10:42:57;4.88;;;2.45;;
81124;SDS011;70613;52.114;5.424;2023-06-10T10:45:30;4.63;;;2.40;;
81124;SDS011;70613;52.114;5.424;2023-06-10T10:48:04;5.15;;;2.60;;
81124;SDS011;70613;52.114;5.424;2023-06-10T10:50:46;5.38;;;2.72;;
81124;SDS011;70613;52.114;5.424;2023-06-10T10:53:26;6.10;;;2.47;;
81124;SDS011;70613;52.114;5.424;2023-06-10T10:55:59;5.05;;;2.55;;
81124;SDS011;70613;52.114;5.424;2023-06-10T10:58:35;4.75;;;2.50;;
81124;SDS011;70613;52.114;5.424;2023-06-10T11:01:13;6.15;;;2.67;;
81124;SDS011;70613;52.114;5.424;2023-06-10T11:03:44;4.75;;;2.40;;
81124;SDS011;70613;52.114;5.424;2023-06-10T11:06:18;4.75;;;2.47;;
81124;SDS011;70613;52.114;5.424;2023-06-10T11:08:49;5.50;;;2.50;;
81124;SDS011;70613;52.114;5.424;2023-06-10T11:11:23;5.07;;;2.50;;
81124;SDS011;70613;52.114;5.424;2023-06-10T11:13:59;4.75;;;2.10;;
81124;SDS011;70613;52.114;5.424;2023-06-10T11:16:40;4.78;;;2.33;;
81124;SDS011;70613;52.114;5.424;2023-06-10T11:22:15;4.47;;;2.30;;
81124;SDS011;70613;52.114;5.424;2023-06-10T11:24:49;4.72;;;2.47;;
81124;SDS011;70613;52.114;5.424;2023-06-10T11:27:20;5.20;;;2.38;;
81124;SDS011;70613;52.114;5.424;2023-06-10T11:29:57;4.70;;;2.30;;
81124;SDS011;70613;52.114;5.424;2023-06-10T11:32:49;4.13;;;2.13;;
81124;SDS011;70613;52.114;5.424;2023-06-10T11:35:21;4.93;;;2.50;;
81124;SDS011;70613;52.114;5.424;2023-06-10T11:37:56;4.72;;;2.15;;
81124;SDS011;70613;52.114;5.424;2023-06-10T11:40:28;5.15;;;2.50;;
81124;SDS011;70613;52.114;5.424;2023-06-10T11:43:00;4.82;;;2.30;;
81124;SDS011;70613;52.114;5.424;2023-06-10T11:45:31;4.40;;;2.22;;
81124;SDS011;70613;52.114;5.424;2023-06-10T11:48:01;4.63;;;2.42;;
81124;SDS011;70613;52.114;5.424;2023-06-10T11:50:33;4.40;;;2.30;;
81124;SDS011;70613;52.114;5.424;2023-06-10T11:53:07;5.32;;;2.40;;
81124;SDS011;70613;52.114;5.424;2023-06-10T11:55:44;5.07;;;2.10;;
81124;SDS011;70613;52.114;5.424;2023-06-10T11:58:16;4.82;;;2.40;;
81124;SDS011;70613;52.114;5.424;2023-06-10T12:00:47;4.32;;;2.05;;
81124;SDS011;70613;52.114;5.424;2023-06-10T12:03:19;4.97;;;2.40;;
81124;SDS011;70613;52.114;5.424;2023-06-10T12:05:56;5.10;;;2.45;;
81124;SDS011;70613;52.114;5.424;2023-06-10T12:08:30;5.45;;;2.70;;
81124;SDS011;70613;52.114;5.424;2023-06-10T12:11:10;5.30;;;2.28;;
81124;SDS011;70613;52.114;5.424;2023-06-10T12:13:45;5.70;;;2.58;;
81124;SDS011;70613;52.114;5.424;2023-06-10T12:16:16;4.38;;;2.45;;
81124;SDS011;70613;52.114;5.424;2023-06-10T12:18:47;3.95;;;2.17;;
81124;SDS011;70613;52.114;5.424;2023-06-10T12:21:17;5.00;;;2.17;;
81124;SDS011;70613;52.114;5.424;2023-06-10T12:24:04;5.63;;;2.53;;
81124;SDS011;70613;52.114;5.424;2023-06-10T12:26:39;5.47;;;2.50;;
81124;SDS011;70613;52.114;5.424;2023-06-10T12:29:20;5.15;;;2.50;;
81124;SDS011;70613;52.114;5.424;2023-06-10T12:32:03;4.75;;;2.30;;
81124;SDS011;70613;52.114;5.424;2023-06-10T12:34:36;4.88;;;2.38;;
81124;SDS011;70613;52.114;5.424;2023-06-10T12:37:10;5.22;;;2.55;;
81124;SDS011;70613;52.114;5.424;2023-06-10T12:39:50;6.00;;;2.70;;
81124;SDS011;70613;52.114;5.424;2023-06-10T12:42:21;5.40;;;2.50;;
81124;SDS011;70613;52.114;5.424;2023-06-10T12:44:53;4.00;;;2.30;;
81124;SDS011;70613;52.114;5.424;2023-06-10T12:47:29;5.05;;;2.20;;
81124;SDS011;70613;52.114;5.424;2023-06-10T12:50:00;4.72;;;2.47;;
81124;SDS011;70613;52.114;5.424;2023-06-10T12:52:31;4.68;;;2.35;;
81124;SDS011;70613;52.114;5.424;2023-06-10T12:55:04;4.78;;;2.33;;
81124;SDS011;70613;52.114;5.424;2023-06-10T12:57:35;4.47;;;2.15;;
81124;SDS011;70613;52.114;5.424;2023-06-10T13:00:06;4.95;;;2.58;;
81124;SDS011;70613;52.114;5.424;2023-06-10T13:02:39;4.55;;;2.45;;
81124;SDS011;70613;52.114;5.424;2023-06-10T13:05:08;5.72;;;2.60;;
81124;SDS011;70613;52.114;5.424;2023-06-10T13:07:38;5.28;;;2.60;;
81124;SDS011;70613;52.114;5.424;2023-06-10T13:10:17;4.85;;;2.67;;
81124;SDS011;70613;52.114;5.424;2023-06-10T13:12:47;4.53;;;2.45;;
81124;SDS011;70613;52.114;5.424;2023-06-10T13:15:17;4.90;;;2.50;;
81124;SDS011;70613;52.114;5.424;2023-06-10T13:17:47;5.25;;;2.60;;
81124;SDS011;70613;52.114;5.424;2023-06-10T13:20:21;5.40;;;2.40;;
81124;SDS011;70613;52.114;5.424;2023-06-10T13:22:51;5.13;;;2.50;;
81124;SDS011;70613;52.114;5.424;2023-06-10T13:25:23;4.80;;;2.50;;
81124;SDS011;70613;52.114;5.424;2023-06-10T13:27:53;4.68;;;2.72;;
81124;SDS011;70613;52.114;5.424;2023-06-10T13:30:23;4.57;;;2.80;;
81124;SDS011;70613;52.114;5.424;2023-06-10T13:32:53;5.28;;;2.72;;
81124;SDS011;70613;52.114;5.424;2023-06-10T13:35:23;5.22;;;2.60;;
81124;SDS011;70613;52.114;5.424;2023-06-10T13:37:53;5.13;;;2.58;;
81124;SDS011;70613;52.114;5.424;2023-06-10T13:40:32;4.82;;;2.38;;
81124;SDS011;70613;52.114;5.424;2023-06-10T13:43:02;5.15;;;2.45;;
81124;SDS011;70613;52.114;5.424;2023-06-10T13:45:32;4.68;;;2.55;;
81124;SDS011;70613;52.114;5.424;2023-06-10T13:48:02;5.07;;;2.38;;
81124;SDS011;70613;52.114;5.424;2023-06-10T13:50:32;4.43;;;2.47;;
81124;SDS011;70613;52.114;5.424;2023-06-10T13:53:02;5.30;;;2.58;;
81124;SDS011;70613;52.114;5.424;2023-06-10T13:57:03;4.57;;;2.65;;
81124;SDS011;70613;52.114;5.424;2023-06-10T13:59:35;7.57;;;2.58;;
81124;SDS011;70613;52.114;5.424;2023-06-10T14:02:05;5.18;;;2.55;;
81124;SDS011;70613;52.114;5.424;2023-06-10T14:04:35;6.25;;;3.03;;
81124;SDS011;70613;52.114;5.424;2023-06-10T14:07:05;6.25;;;2.55;;
81124;SDS011;70613;52.114;5.424;2023-06-10T14:09:35;5.65;;;2.60;;
81124;SDS011;70613;52.114;5.424;2023-06-10T14:12:09;6.13;;;2.47;;
81124;SDS011;70613;52.114;5.424;2023-06-10T14:14:39;5.65;;;2.80;;
81124;SDS011;70613;52.114;5.424;2023-06-10T14:17:09;4.75;;;2.55;;
81124;SDS011;70613;52.114;5.424;2023-06-10T14:19:39;4.85;;;2.40;;
81124;SDS011;70613;52.114;5.424;2023-06-10T14:22:10;4.65;;;2.65;;
81124;SDS011;70613;52.114;5.424;2023-06-10T14:24:40;6.15;;;2.60;;
81124;SDS011;70613;52.114;5.424;2023-06-10T14:27:12;4.97;;;2.60;;
81124;SDS011;70613;52.114;5.424;2023-06-10T14:29:42;6.82;;;2.67;;
81124;SDS011;70613;52.114;5.424;2023-06-10T14:32:12;5.75;;;2.70;;
81124;SDS011;70613;52.114;5.424;2023-06-10T14:34:44;5.63;;;2.88;;
81124;SDS011;70613;52.114;5.424;2023-06-10T14:37:13;4.10;;;2.40;;
81124;SDS011;70613;52.114;5.424;2023-06-10T14:39:43;5.60;;;2.65;;
81124;SDS011;70613;52.114;5.424;2023-06-10T14:42:19;5.28;;;2.40;;
81124;SDS011;70613;52.114;5.424;2023-06-10T14:44:49;5.55;;;3.15;;
81124;SDS011;70613;52.114;5.424;2023-06-10T14:47:19;8.00;;;2.78;;
81124;SDS011;70613;52.114;5.424;2023-06-10T14:49:48;7.63;;;3.22;;
81124;SDS011;70613;52.114;5.424;2023-06-10T14:52:18;9.88;;;3.35;;
81124;SDS011;70613;52.114;5.424;2023-06-10T14:54:48;11.25;;;3.40;;
81124;SDS011;70613;52.114;5.424;2023-06-10T14:57:21;9.25;;;3.20;;
81124;SDS011;70613;52.114;5.424;2023-06-10T14:59:50;8.05;;;3.00;;
81124;SDS011;70613;52.114;5.424;2023-06-10T15:02:21;9.00;;;3.72;;
81124;SDS011;70613;52.114;5.424;2023-06-10T15:04:51;7.88;;;3.40;;
81124;SDS011;70613;52.114;5.424;2023-06-10T15:07:21;6.82;;;2.90;;
81124;SDS011;70613;52.114;5.424;2023-06-10T15:09:51;9.40;;;3.38;;
81124;SDS011;70613;52.114;5.424;2023-06-10T15:12:24;8.23;;;3.10;;
81124;SDS011;70613;52.114;5.424;2023-06-10T15:14:53;6.10;;;3.17;;
81124;SDS011;70613;52.114;5.424;2023-06-10T15:17:23;7.10;;;2.92;;
81124;SDS011;70613;52.114;5.424;2023-06-10T15:19:53;8.40;;;3.38;;
81124;SDS011;70613;52.114;5.424;2023-06-10T15:22:24;7.20;;;3.13;;
81124;SDS011;70613;52.114;5.424;2023-06-10T15:24:54;5.97;;;2.70;;
81124;SDS011;70613;52.114;5.424;2023-06-10T15:27:26;6.75;;;2.92;;
81124;SDS011;70613;52.114;5.424;2023-06-10T15:29:56;5.63;;;2.83;;
81124;SDS011;70613;52.114;5.424;2023-06-10T15:32:26;6.20;;;2.95;;
81124;SDS011;70613;52.114;5.424;2023-06-10T15:34:55;6.25;;;3.00;;
81124;SDS011;70613;52.114;5.424;2023-06-10T15:37:25;6.68;;;2.90;;
81124;SDS011;70613;52.114;5.424;2023-06-10T15:39:55;7.13;;;3.10;;
81124;SDS011;70613;52.114;5.424;2023-06-10T15:42:28;5.82;;;3.00;;
81124;SDS011;70613;52.114;5.424;2023-06-10T15:44:57;7.65;;;2.90;;
81124;SDS011;70613;52.114;5.424;2023-06-10T15:47:27;6.72;;;2.88;;
81124;SDS011;70613;52.114;5.424;2023-06-10T15:49:57;6.90;;;3.03;;
81124;SDS011;70613;52.114;5.424;2023-06-10T15:52:27;7.43;;;3.20;;
81124;SDS011;70613;52.114;5.424;2023-06-10T15:54:56;5.35;;;2.90;;
81124;SDS011;70613;52.114;5.424;2023-06-10T15:57:29;7.82;;;2.90;;
81124;SDS011;70613;52.114;5.424;2023-06-10T15:59:59;5.80;;;2.90;;
81124;SDS011;70613;52.114;5.424;2023-06-10T16:02:31;5.30;;;2.80;;
81124;SDS011;70613;52.114;5.424;2023-06-10T16:05:01;5.70;;;2.83;;
81124;SDS011;70613;52.114;5.424;2023-06-10T16:07:31;7.00;;;3.10;;
81124;SDS011;70613;52.114;5.424;2023-06-10T16:10:01;6.22;;;2.70;;
81124;SDS011;70613;52.114;5.424;2023-06-10T16:12:34;6.25;;;3.10;;
81124;SDS011;70613;52.114;5.424;2023-06-10T16:15:04;6.07;;;3.20;;
81124;SDS011;70613;52.114;5.424;2023-06-10T16:17:36;6.05;;;2.78;;
81124;SDS011;70613;52.114;5.424;2023-06-10T16:20:13;5.68;;;2.58;;
81124;SDS011;70613;52.114;5.424;2023-06-10T16:22:43;5.75;;;2.63;;
81124;SDS011;70613;52.114;5.424;2023-06-10T16:25:13;5.88;;;2.80;;
81124;SDS011;70613;52.114;5.424;2023-06-10T16:27:46;6.05;;;3.20;;
81124;SDS011;70613;52.114;5.424;2023-06-10T16:30:16;6.32;;;2.95;;
81124;SDS011;70613;52.114;5.424;2023-06-10T16:32:46;5.57;;;2.78;;
81124;SDS011;70613;52.114;5.424;2023-06-10T16:35:16;6.28;;;2.80;;
81124;SDS011;70613;52.114;5.424;2023-06-10T16:37:46;5.47;;;2.90;;
81124;SDS011;70613;52.114;5.424;2023-06-10T16:40:18;6.85;;;3.10;;
81124;SDS011;70613;52.114;5.424;2023-06-10T16:42:51;5.90;;;2.90;;
81124;SDS011;70613;52.114;5.424;2023-06-10T16:45:21;5.68;;;2.85;;
81124;SDS011;70613;52.114;5.424;2023-06-10T16:47:51;6.35;;;2.80;;
81124;SDS011;70613;52.114;5.424;2023-06-10T16:50:22;8.23;;;3.03;;
81124;SDS011;70613;52.114;5.424;2023-06-10T16:52:52;6.20;;;2.85;;
81124;SDS011;70613;52.114;5.424;2023-06-10T16:55:22;5.38;;;2.70;;
81124;SDS011;70613;52.114;5.424;2023-06-10T16:57:54;7.57;;;3.10;;
81124;SDS011;70613;52.114;5.424;2023-06-10T17:00:26;5.85;;;2.70;;
81124;SDS011;70613;52.114;5.424;2023-06-10T17:02:56;6.65;;;2.70;;
81124;SDS011;70613;52.114;5.424;2023-06-10T17:05:25;6.00;;;2.63;;
81124;SDS011;70613;52.114;5.424;2023-06-10T17:07:55;5.45;;;3.17;;
81124;SDS011;70613;52.114;5.424;2023-06-10T17:10:27;5.78;;;2.78;;
81124;SDS011;70613;52.114;5.424;2023-06-10T17:13:00;6.95;;;3.00;;
81124;SDS011;70613;52.114;5.424;2023-06-10T17:15:30;6.32;;;2.75;;
81124;SDS011;70613;52.114;5.424;2023-06-10T17:18:00;6.07;;;2.80;;
81124;SDS011;70613;52.114;5.424;2023-06-10T17:20:31;5.40;;;2.90;;
81124;SDS011;70613;52.114;5.424;2023-06-10T17:23:01;8.45;;;3.28;;
81124;SDS011;70613;52.114;5.424;2023-06-10T17:25:31;8.65;;;3.40;;
81124;SDS011;70613;52.114;5.424;2023-06-10T17:28:04;7.65;;;3.35;;
81124;SDS011;70613;52.114;5.424;2023-06-10T17:30:38;7.32;;;3.78;;
81124;SDS011;70613;52.114;5.424;2023-06-10T17:33:10;6.78;;;3.40;;
81124;SDS011;70613;52.114;5.424;2023-06-10T17:35:40;5.07;;;3.00;;
81124;SDS011;70613;52.114;5.424;2023-06-10T17:38:10;6.35;;;3.42;;
81124;SDS011;70613;52.114;5.424;2023-06-10T17:40:48;6.40;;;3.35;;
81124;SDS011;70613;52.114;5.424;2023-06-10T17:43:20;7.20;;;3.38;;
81124;SDS011;70613;52.114;5.424;2023-06-10T17:45:51;8.45;;;3.83;;
81124;SDS011;70613;52.114;5.424;2023-06-10T17:48:21;6.95;;;3.63;;
81124;SDS011;70613;52.114;5.424;2023-06-10T17:50:52;6.70;;;3.67;;
81124;SDS011;70613;52.114;5.424;2023-06-10T17:53:22;6.03;;;3.20;;
81124;SDS011;70613;52.114;5.424;2023-06-10T17:55:52;8.10;;;3.20;;
81124;SDS011;70613;52.114;5.424;2023-06-10T17:58:24;6.63;;;3.40;;
81124;SDS011;70613;52.114;5.424;2023-06-10T18:00:55;6.82;;;3.30;;
81124;SDS011;70613;52.114;5.424;2023-06-10T18:03:25;6.45;;;3.38;;
81124;SDS011;70613;52.114;5.424;2023-06-10T18:05:55;7.10;;;3.60;;
81124;SDS011;70613;52.114;5.424;2023-06-10T18:08:25;8.57;;;3.60;;
81124;SDS011;70613;52.114;5.424;2023-06-10T18:13:51;6.22;;;3.05;;
81124;SDS011;70613;52.114;5.424;2023-06-10T18:16:21;5.03;;;3.10;;
81124;SDS011;70613;52.114;5.424;2023-06-10T18:18:52;6.22;;;3.10;;
81124;SDS011;70613;52.114;5.424;2023-06-10T18:21:22;6.00;;;3.20;;
81124;SDS011;70613;52.114;5.424;2023-06-10T18:23:52;5.22;;;3.00;;
81124;SDS011;70613;52.114;5.424;2023-06-10T18:26:22;6.28;;;3.15;;
81124;SDS011;70613;52.114;5.424;2023-06-10T18:28:55;6.38;;;3.25;;
81124;SDS011;70613;52.114;5.424;2023-06-10T18:31:27;6.22;;;2.85;;
81124;SDS011;70613;52.114;5.424;2023-06-10T18:33:57;5.70;;;3.50;;
81124;SDS011;70613;52.114;5.424;2023-06-10T18:36:29;9.30;;;3.38;;
81124;SDS011;70613;52.114;5.424;2023-06-10T18:38:59;6.00;;;3.20;;
81124;SDS011;70613;52.114;5.424;2023-06-10T18:41:35;5.60;;;3.20;;
81124;SDS011;70613;52.114;5.424;2023-06-10T18:44:07;6.15;;;3.10;;
81124;SDS011;70613;52.114;5.424;2023-06-10T18:46:38;6.05;;;2.88;;
81124;SDS011;70613;52.114;5.424;2023-06-10T18:49:08;5.78;;;3.00;;
81124;SDS011;70613;52.114;5.424;2023-06-10T18:51:40;6.45;;;3.45;;
81124;SDS011;70613;52.114;5.424;2023-06-10T18:54:10;5.72;;;2.75;;
81124;SDS011;70613;52.114;5.424;2023-06-10T18:56:40;5.70;;;2.90;;
81124;SDS011;70613;52.114;5.424;2023-06-10T18:59:12;6.20;;;3.20;;
81124;SDS011;70613;52.114;5.424;2023-06-10T19:01:44;5.97;;;3.00;;
81124;SDS011;70613;52.114;5.424;2023-06-10T19:04:14;6.55;;;3.10;;
81124;SDS011;70613;52.114;5.424;2023-06-10T19:06:43;7.43;;;3.08;;
81124;SDS011;70613;52.114;5.424;2023-06-10T19:09:14;5.03;;;2.88;;
81124;SDS011;70613;52.114;5.424;2023-06-10T19:11:45;6.82;;;2.80;;
81124;SDS011;70613;52.114;5.424;2023-06-10T19:14:17;6.68;;;3.05;;
81124;SDS011;70613;52.114;5.424;2023-06-10T19:16:50;5.45;;;2.72;;
81124;SDS011;70613;52.114;5.424;2023-06-10T19:19:19;6.40;;;3.17;;
81124;SDS011;70613;52.114;5.424;2023-06-10T19:21:51;6.60;;;2.90;;
81124;SDS011;70613;52.114;5.424;2023-06-10T19:24:21;5.95;;;2.58;;
81124;SDS011;70613;52.114;5.424;2023-06-10T19:26:51;6.40;;;3.33;;
81124;SDS011;70613;52.114;5.424;2023-06-10T19:29:23;6.78;;;3.42;;
81124;SDS011;70613;52.114;5.424;2023-06-10T19:31:56;6.47;;;3.22;;
81124;SDS011;70613;52.114;5.424;2023-06-10T19:34:26;4.88;;;2.65;;
81124;SDS011;70613;52.114;5.424;2023-06-10T19:36:59;5.93;;;3.00;;
81124;SDS011;70613;52.114;5.424;2023-06-10T19:39:29;7.28;;;3.42;;
81124;SDS011;70613;52.114;5.424;2023-06-10T19:41:59;5.22;;;2.92;;
81124;SDS011;70613;52.114;5.424;2023-06-10T19:44:35;6.20;;;3.08;;
81124;SDS011;70613;52.114;5.424;2023-06-10T19:47:05;6.55;;;3.17;;
81124;SDS011;70613;52.114;5.424;2023-06-10T19:49:36;4.30;;;2.55;;
81124;SDS011;70613;52.114;5.424;2023-06-10T19:52:07;6.50;;;3.17;;
81124;SDS011;70613;52.114;5.424;2023-06-10T19:54:37;6.07;;;2.97;;
81124;SDS011;70613;52.114;5.424;2023-06-10T19:57:09;9.60;;;3.42;;
81124;SDS011;70613;52.114;5.424;2023-06-10T19:59:42;5.45;;;2.80;;
81124;SDS011;70613;52.114;5.424;2023-06-10T20:02:13;5.35;;;2.67;;
81124;SDS011;70613;52.114;5.424;2023-06-10T20:04:43;6.47;;;3.22;;
81124;SDS011;70613;52.114;5.424;2023-06-10T20:07:13;5.32;;;2.58;;
81124;SDS011;70613;52.114;5.424;2023-06-10T20:09:43;5.57;;;2.60;;
81124;SDS011;70613;52.114;5.424;2023-06-10T20:12:13;6.43;;;3.58;;
81124;SDS011;70613;52.114;5.424;2023-06-10T20:14:46;5.95;;;2.90;;
81124;SDS011;70613;52.114;5.424;2023-06-10T20:17:18;5.80;;;3.13;;
81124;SDS011;70613;52.114;5.424;2023-06-10T20:19:50;5.65;;;3.25;;
81124;SDS011;70613;52.114;5.424;2023-06-10T20:22:21;5.93;;;3.22;;
81124;SDS011;70613;52.114;5.424;2023-06-10T20:24:51;8.05;;;3.30;;
81124;SDS011;70613;52.114;5.424;2023-06-10T20:27:21;5.82;;;3.03;;
81124;SDS011;70613;52.114;5.424;2023-06-10T20:29:53;5.72;;;3.22;;
81124;SDS011;70613;52.114;5.424;2023-06-10T20:32:23;8.02;;;3.08;;
81124;SDS011;70613;52.114;5.424;2023-06-10T20:34:53;8.43;;;3.25;;
81124;SDS011;70613;52.114;5.424;2023-06-10T20:37:23;6.38;;;3.17;;
81124;SDS011;70613;52.114;5.424;2023-06-10T20:39:53;5.93;;;3.20;;
81124;SDS011;70613;52.114;5.424;2023-06-10T20:42:23;7.97;;;2.97;;
81124;SDS011;70613;52.114;5.424;2023-06-10T20:44:55;6.35;;;3.10;;
81124;SDS011;70613;52.114;5.424;2023-06-10T20:47:25;6.13;;;3.05;;
81124;SDS011;70613;52.114;5.424;2023-06-10T20:49:55;6.38;;;2.70;;
81124;SDS011;70613;52.114;5.424;2023-06-10T20:52:25;6.05;;;3.00;;
81124;SDS011;70613;52.114;5.424;2023-06-10T20:54:55;5.20;;;2.60;;
81124;SDS011;70613;52.114;5.424;2023-06-10T20:57:24;6.40;;;3.10;;
81124;SDS011;70613;52.114;5.424;2023-06-10T20:59:57;5.88;;;3.00;;
81124;SDS011;70613;52.114;5.424;2023-06-10T21:02:27;5.53;;;2.67;;
81124;SDS011;70613;52.114;5.424;2023-06-10T21:04:57;5.80;;;3.08;;
81124;SDS011;70613;52.114;5.424;2023-06-10T21:07:27;5.55;;;2.83;;
81124;SDS011;70613;52.114;5.424;2023-06-10T21:09:57;6.38;;;2.92;;
81124;SDS011;70613;52.114;5.424;2023-06-10T21:12:30;6.22;;;3.00;;
81124;SDS011;70613;52.114;5.424;2023-06-10T21:15:03;5.32;;;2.42;;
81124;SDS011;70613;52.114;5.424;2023-06-10T21:17:35;5.50;;;2.80;;
81124;SDS011;70613;52.114;5.424;2023-06-10T21:20:05;6.95;;;2.83;;
81124;SDS011;70613;52.114;5.424;2023-06-10T21:22:37;7.68;;;3.22;;
81124;SDS011;70613;52.114;5.424;2023-06-10T21:25:07;6.38;;;2.78;;
81124;SDS011;70613;52.114;5.424;2023-06-10T21:27:38;5.07;;;2.63;;
81124;SDS011;70613;52.114;5.424;2023-06-10T21:30:13;5.35;;;2.53;;
81124;SDS011;70613;52.114;5.424;2023-06-10T21:35:12;5.15;;;2.80;;
81124;SDS011;70613;52.114;5.424;2023-06-10T21:37:43;5.80;;;2.50;;
81124;SDS011;70613;52.114;5.424;2023-06-10T21:40:13;5.65;;;2.53;;
81124;SDS011;70613;52.114;5.424;2023-06-10T21:42:44;6.22;;;2.95;;
81124;SDS011;70613;52.114;5.424;2023-06-10T21:45:16;8.02;;;3.38;;
81124;SDS011;70613;52.114;5.424;2023-06-10T21:47:47;6.85;;;2.80;;
81124;SDS011;70613;52.114;5.424;2023-06-10T21:50:19;6.00;;;2.95;;
81124;SDS011;70613;52.114;5.424;2023-06-10T21:52:49;5.82;;;3.00;;
81124;SDS011;70613;52.114;5.424;2023-06-10T21:55:19;5.03;;;2.55;;
81124;SDS011;70613;52.114;5.424;2023-06-10T21:57:48;8.30;;;2.95;;
81124;SDS011;70613;52.114;5.424;2023-06-10T22:00:28;4.88;;;2.75;;
81124;SDS011;70613;52.114;5.424;2023-06-10T22:02:58;6.63;;;2.90;;
81124;SDS011;70613;52.114;5.424;2023-06-10T22:05:28;5.30;;;2.60;;
81124;SDS011;70613;52.114;5.424;2023-06-10T22:07:58;8.70;;;2.78;;
81124;SDS011;70613;52.114;5.424;2023-06-10T22:10:29;8.85;;;2.85;;
81124;SDS011;70613;52.114;5.424;2023-06-10T22:12:59;7.20;;;2.90;;
81124;SDS011;70613;52.114;5.424;2023-06-10T22:15:35;6.68;;;2.80;;
81124;SDS011;70613;52.114;5.424;2023-06-10T22:18:05;6.20;;;3.05;;
81124;SDS011;70613;52.114;5.424;2023-06-10T22:20:43;5.75;;;3.20;;
81124;SDS011;70613;52.114;5.424;2023-06-10T22:23:17;7.82;;;3.35;;
81124;SDS011;70613;52.114;5.424;2023-06-10T22:25:47;5.93;;;2.75;;
81124;SDS011;70613;52.114;5.424;2023-06-10T22:28:17;6.53;;;3.03;;
81124;SDS011;70613;52.114;5.424;2023-06-10T22:30:54;6.07;;;3.13;;
81124;SDS011;70613;52.114;5.424;2023-06-10T22:33:24;6.88;;;3.15;;
81124;SDS011;70613;52.114;5.424;2023-06-10T22:35:54;6.07;;;2.88;;